Time;durP1;ratioP1;P1;durP2;ratioP2;P2;SDS_P1;SDS_P2;PMS_P1;PMS_P2;Temp;Humidity;BMP_temperature;BMP_pressure;BME280_temperature;BME280_humidity;BME280_pressure;Samples;Min_cycle;Max_cycle;Signal;HPM_P1;HPM_P2
2023/06/25 00:01:28;;;;;;;1.47;0.90;;;20.80;95.40;;;;;;5004889;28;20480;-82
2023/06/25 00:03:55;;;;;;;1.47;0.90;;;20.70;95.50;;;;;;5006133;28;20471;-81
2023/06/25 00:06:22;;;;;;;1.50;0.90;;;20.70;95.40;;;;;;4996594;28;20538;-81
2023/06/25 00:08:49;;;;;;;1.50;0.97;;;20.70;95.40;;;;;;5011243;28;20863;-81
2023/06/25 00:11:17;;;;;;;1.50;0.90;;;20.60;95.00;;;;;;4994944;28;20475;-81
2023/06/25 00:13:44;;;;;;;1.47;0.90;;;20.60;94.90;;;;;;5010151;28;20492;-81
2023/06/25 00:16:10;;;;;;;1.47;0.90;;;20.60;95.30;;;;;;4995511;28;20496;-81
2023/06/25 00:18:37;;;;;;;1.50;0.90;;;20.60;95.30;;;;;;5005774;28;20539;-81
2023/06/25 00:21:04;;;;;;;1.50;0.90;;;20.60;95.70;;;;;;4992643;28;20462;-81
2023/06/25 00:23:31;;;;;;;1.50;0.97;;;20.50;96.70;;;;;;5019742;28;21007;-82
2023/06/25 00:25:58;;;;;;;1.60;1.10;;;20.50;96.10;;;;;;4989619;28;20492;-82
2023/06/25 00:28:26;;;;;;;1.47;0.90;;;20.50;96.40;;;;;;5006292;28;20856;-81
2023/06/25 00:30:53;;;;;;;1.47;0.90;;;20.50;96.20;;;;;;4992552;28;20467;-81
2023/06/25 00:33:19;;;;;;;1.50;0.90;;;20.50;96.10;;;;;;5014447;28;20457;-81
2023/06/25 00:36:09;;;;;;;1.43;0.90;;;20.40;95.70;;;;;;4995988;28;20919;-81
2023/06/25 00:38:38;;;;;;;1.47;0.90;;;20.40;95.50;;;;;;4970116;28;20503;-82
2023/06/25 00:41:07;;;;;;;1.47;0.90;;;20.40;95.40;;;;;;4990277;28;20520;-81
2023/06/25 00:43:35;;;;;;;1.43;0.90;;;20.40;95.50;;;;;;5013037;28;20465;-81
2023/06/25 00:46:02;;;;;;;1.47;0.90;;;20.40;96.10;;;;;;4987392;28;21097;-81
2023/06/25 00:48:29;;;;;;;1.47;0.90;;;20.40;96.30;;;;;;5012901;28;20464;-81
2023/06/25 00:51:01;;;;;;;1.47;0.90;;;20.40;96.90;;;;;;4990649;28;21030;-81
2023/06/25 00:53:33;;;;;;;1.47;0.90;;;20.30;97.00;;;;;;5016351;28;20472;-81
2023/06/25 00:56:00;;;;;;;1.47;0.90;;;20.30;97.10;;;;;;4991248;28;20552;-81
2023/06/25 00:58:26;;;;;;;1.50;0.90;;;20.30;97.20;;;;;;4998724;28;20468;-80
2023/06/25 01:00:59;;;;;;;1.47;0.90;;;20.30;97.40;;;;;;4986761;28;20457;-81
2023/06/25 01:03:31;;;;;;;1.50;0.90;;;20.20;97.40;;;;;;5021060;28;20471;-82
2023/06/25 01:06:06;;;;;;;1.47;0.90;;;20.20;97.50;;;;;;5021830;23;20503;-83
2023/06/25 01:08:36;;;;;;;1.47;0.90;;;20.20;97.10;;;;;;5007454;28;20459;-83
2023/06/25 01:11:04;;;;;;;1.50;0.90;;;20.20;97.00;;;;;;5018536;28;21008;-83
2023/06/25 01:13:31;;;;;;;1.43;0.90;;;20.10;97.70;;;;;;5012299;28;21041;-82
2023/06/25 01:16:00;;;;;;;1.47;0.90;;;20.10;97.80;;;;;;5028666;28;20569;-83
2023/06/25 01:18:26;;;;;;;1.47;0.90;;;20.10;98.20;;;;;;5028464;28;20481;-82
2023/06/25 01:20:56;;;;;;;1.50;1.00;;;20.10;98.20;;;;;;5030892;28;20456;-83
2023/06/25 01:23:24;;;;;;;1.43;0.90;;;20.10;98.20;;;;;;5034637;28;20525;-83
2023/06/25 01:25:51;;;;;;;1.47;0.90;;;20.00;98.20;;;;;;5028679;28;20487;-82
2023/06/25 01:28:20;;;;;;;1.50;0.90;;;20.00;98.20;;;;;;5028003;28;20474;-83
2023/06/25 01:30:51;;;;;;;1.47;1.00;;;20.00;98.20;;;;;;5041492;28;20482;-83
2023/06/25 01:33:19;;;;;;;1.47;0.90;;;20.00;98.20;;;;;;5025896;28;20478;-82
2023/06/25 01:35:45;;;;;;;1.50;1.00;;;20.00;98.20;;;;;;5039462;28;20919;-83
2023/06/25 01:38:13;;;;;;;1.50;0.90;;;19.90;98.20;;;;;;5013847;28;20864;-82
2023/06/25 01:40:41;;;;;;;1.40;0.90;;;19.90;98.20;;;;;;5045199;28;20459;-83
2023/06/25 01:43:08;;;;;;;1.47;0.90;;;19.90;98.20;;;;;;5017781;28;20488;-82
2023/06/25 01:45:34;;;;;;;1.47;0.90;;;19.90;98.20;;;;;;5044734;28;20487;-82
2023/06/25 01:48:01;;;;;;;1.47;0.90;;;19.90;98.20;;;;;;5019299;28;20491;-82
2023/06/25 01:50:28;;;;;;;1.47;0.90;;;19.90;98.20;;;;;;5041609;28;20486;-82
2023/06/25 01:52:55;;;;;;;1.50;0.90;;;19.90;98.20;;;;;;5005289;28;20484;-81
2023/06/25 01:55:22;;;;;;;1.50;1.00;;;19.80;98.20;;;;;;5041224;28;20483;-82
2023/06/25 01:57:50;;;;;;;1.50;0.90;;;19.80;98.20;;;;;;5019098;28;20487;-82
2023/06/25 02:00:17;;;;;;;1.47;0.90;;;19.80;98.20;;;;;;5032637;28;20828;-82
2023/06/25 02:02:44;;;;;;;1.70;1.23;;;19.80;98.20;;;;;;5019233;28;20519;-82
2023/06/25 02:05:11;;;;;;;1.43;0.90;;;19.80;98.20;;;;;;5033138;28;20493;-82
2023/06/25 02:07:38;;;;;;;1.47;0.90;;;19.70;98.20;;;;;;5009955;28;20494;-82
2023/06/25 02:10:06;;;;;;;1.47;0.90;;;19.70;98.20;;;;;;5035067;28;20482;-82
2023/06/25 02:12:33;;;;;;;1.43;0.90;;;19.70;98.20;;;;;;5021275;28;21108;-82
2023/06/25 02:15:01;;;;;;;1.47;0.90;;;19.70;98.20;;;;;;5048744;28;20461;-83
2023/06/25 02:17:28;;;;;;;1.47;0.90;;;19.70;98.20;;;;;;5015788;28;20480;-83
2023/06/25 02:19:54;;;;;;;1.50;0.90;;;19.70;98.20;;;;;;5037487;28;20825;-82
2023/06/25 02:22:21;;;;;;;1.47;0.90;;;19.70;98.20;;;;;;5021389;28;20989;-82
2023/06/25 02:24:48;;;;;;;1.50;0.90;;;19.70;98.20;;;;;;5035785;28;20473;-82
2023/06/25 02:27:15;;;;;;;1.50;0.90;;;19.70;98.20;;;;;;5019732;28;20601;-82
2023/06/25 02:29:42;;;;;;;1.50;0.90;;;19.70;98.20;;;;;;5030106;28;20581;-82
2023/06/25 02:32:10;;;;;;;1.50;0.90;;;19.70;98.20;;;;;;5021610;28;21092;-82
2023/06/25 02:34:46;;;;;;;1.47;0.90;;;19.70;98.20;;;;;;5037350;28;20957;-82
2023/06/25 02:37:19;;;;;;;1.40;0.90;;;19.60;98.20;;;;;;5028185;28;20554;-82
2023/06/25 02:39:46;;;;;;;1.50;0.90;;;19.60;98.20;;;;;;5044059;28;20965;-83
2023/06/25 02:42:12;;;;;;;1.50;1.00;;;19.60;98.20;;;;;;5029345;28;20479;-82
2023/06/25 02:44:39;;;;;;;1.47;0.90;;;19.60;98.20;;;;;;5036004;28;20980;-82
2023/06/25 02:47:07;;;;;;;1.50;0.90;;;19.60;98.20;;;;;;5027930;28;20478;-82
2023/06/25 02:49:35;;;;;;;1.43;0.90;;;19.60;98.20;;;;;;5038946;28;20517;-83
2023/06/25 02:52:02;;;;;;;1.50;0.90;;;19.60;98.20;;;;;;5031459;28;20558;-83
2023/06/25 02:54:29;;;;;;;1.43;0.90;;;19.60;98.20;;;;;;5037776;28;20466;-83
2023/06/25 02:56:57;;;;;;;1.50;1.00;;;19.60;98.20;;;;;;5024897;28;21054;-83
2023/06/25 02:59:24;;;;;;;1.43;0.90;;;19.60;98.20;;;;;;5037707;28;20482;-83
2023/06/25 03:01:51;;;;;;;1.47;0.90;;;19.60;98.20;;;;;;5025435;28;20564;-83
2023/06/25 03:04:18;;;;;;;1.50;0.90;;;19.60;98.20;;;;;;5037217;28;20457;-83
2023/06/25 03:06:46;;;;;;;1.50;0.90;;;19.60;98.20;;;;;;5028000;28;20557;-83
2023/06/25 03:09:13;;;;;;;1.43;0.90;;;19.60;98.20;;;;;;5046709;28;20538;-83
2023/06/25 03:11:40;;;;;;;1.50;0.90;;;19.60;98.20;;;;;;5023447;28;21192;-83
2023/06/25 03:14:06;;;;;;;1.43;0.90;;;19.50;98.20;;;;;;5043244;28;20463;-83
2023/06/25 03:16:33;;;;;;;1.50;1.00;;;19.60;98.20;;;;;;5029492;28;21123;-83
2023/06/25 03:19:01;;;;;;;1.47;0.90;;;19.50;98.20;;;;;;5043371;28;20474;-83
2023/06/25 03:21:28;;;;;;;1.47;0.90;;;19.50;98.20;;;;;;5034693;28;20603;-83
2023/06/25 03:23:56;;;;;;;1.50;1.00;;;19.50;98.20;;;;;;5045235;28;20451;-83
2023/06/25 03:26:23;;;;;;;1.43;0.90;;;19.50;98.20;;;;;;5027515;28;20498;-83
2023/06/25 03:28:51;;;;;;;1.50;0.90;;;19.50;98.20;;;;;;5042402;28;20979;-83
2023/06/25 03:31:18;;;;;;;1.43;0.90;;;19.50;98.20;;;;;;5035530;28;20479;-83
2023/06/25 03:33:45;;;;;;;1.43;0.90;;;19.50;98.20;;;;;;5040425;28;20463;-83
2023/06/25 03:36:24;;;;;;;1.47;0.90;;;19.40;98.20;;;;;;5033490;28;20813;-83
2023/06/25 03:38:50;;;;;;;1.43;0.90;;;19.40;98.20;;;;;;5036373;28;20447;-83
2023/06/25 03:41:19;;;;;;;1.43;0.90;;;19.40;98.20;;;;;;5032516;28;20835;-83
2023/06/25 03:43:45;;;;;;;1.40;0.90;;;19.40;98.20;;;;;;5034973;28;20461;-83
2023/06/25 03:46:12;;;;;;;1.47;0.90;;;19.40;98.20;;;;;;5032049;28;20479;-84
2023/06/25 03:48:42;;;;;;;1.50;0.90;;;19.40;98.20;;;;;;5039384;28;20464;-84
2023/06/25 03:51:09;;;;;;;1.50;0.93;;;19.40;98.20;;;;;;5024785;28;20923;-83
2023/06/25 03:53:36;;;;;;;1.50;1.00;;;19.40;98.20;;;;;;5035579;28;20464;-84
2023/06/25 03:56:02;;;;;;;1.50;1.00;;;19.40;98.20;;;;;;5032468;28;20487;-83
2023/06/25 03:58:31;;;;;;;1.43;0.90;;;19.40;98.20;;;;;;5027327;28;20548;-83
2023/06/25 04:00:57;;;;;;;1.47;0.90;;;19.40;98.20;;;;;;5032999;28;20465;-84
2023/06/25 04:03:25;;;;;;;1.47;0.90;;;19.40;98.20;;;;;;5038191;28;20463;-83
2023/06/25 04:05:52;;;;;;;1.43;0.90;;;19.40;98.20;;;;;;5027301;28;20487;-83
2023/06/25 04:08:19;;;;;;;1.47;0.90;;;19.50;98.20;;;;;;5029773;28;20452;-83
2023/06/25 04:10:46;;;;;;;1.47;0.90;;;19.50;98.20;;;;;;5036542;28;20606;-83
2023/06/25 04:13:13;;;;;;;1.47;0.90;;;19.50;98.20;;;;;;5014764;28;20481;-83
2023/06/25 04:15:41;;;;;;;1.47;0.90;;;19.50;98.20;;;;;;5035677;28;21043;-83
2023/06/25 04:18:08;;;;;;;1.40;0.90;;;19.50;98.20;;;;;;5023418;28;20538;-83
2023/06/25 04:20:35;;;;;;;1.47;0.90;;;19.50;98.20;;;;;;5042890;28;20458;-83
2023/06/25 04:23:02;;;;;;;1.47;0.90;;;19.60;98.20;;;;;;5021413;28;20664;-83
2023/06/25 04:25:29;;;;;;;1.50;0.90;;;19.60;98.20;;;;;;5037829;28;20483;-83
2023/06/25 04:27:56;;;;;;;1.47;0.90;;;19.60;98.20;;;;;;5024043;28;20475;-83
2023/06/25 04:30:23;;;;;;;1.50;0.90;;;19.60;98.20;;;;;;5039442;28;21043;-83
2023/06/25 04:32:51;;;;;;;2.13;1.93;;;19.70;98.20;;;;;;5022796;28;20550;-83
2023/06/25 04:38:13;;;;;;;1.50;0.90;;;19.70;98.20;;;;;;4963171;28;20523;-83
2023/06/25 04:40:41;;;;;;;1.40;0.90;;;19.80;98.20;;;;;;5038994;28;20463;-83
2023/06/25 04:43:07;;;;;;;1.47;0.90;;;19.90;98.20;;;;;;5022051;28;20671;-83
2023/06/25 04:45:34;;;;;;;1.47;0.90;;;20.00;98.20;;;;;;5041331;28;21007;-83
2023/06/25 04:48:03;;;;;;;1.50;0.90;;;20.10;98.20;;;;;;5028152;28;20486;-83
2023/06/25 04:50:30;;;;;;;1.50;0.90;;;20.20;98.20;;;;;;5046141;28;20482;-84
2023/06/25 04:52:57;;;;;;;1.40;0.90;;;20.40;98.20;;;;;;5011536;28;20495;-84
2023/06/25 04:55:24;;;;;;;1.47;0.90;;;20.60;98.20;;;;;;5051302;28;21022;-84
2023/06/25 04:57:51;;;;;;;1.60;1.10;;;20.70;98.20;;;;;;5026817;28;20571;-83
2023/06/25 05:00:21;;;;;;;1.50;0.90;;;20.90;98.20;;;;;;5045640;28;20469;-83
2023/06/25 05:02:48;;;;;;;1.50;0.90;;;21.10;98.20;;;;;;5027906;28;20479;-84
2023/06/25 05:05:16;;;;;;;1.43;0.90;;;21.30;98.20;;;;;;5044191;28;20487;-84
2023/06/25 05:07:43;;;;;;;1.50;0.90;;;21.50;98.20;;;;;;5015276;28;20520;-84
2023/06/25 05:10:10;;;;;;;1.43;0.90;;;21.70;98.20;;;;;;5035524;28;20474;-83
2023/06/25 05:12:37;;;;;;;1.50;0.90;;;21.90;98.20;;;;;;5010292;28;20487;-83
2023/06/25 05:15:04;;;;;;;1.50;0.90;;;22.10;98.20;;;;;;5036332;28;20965;-84
2023/06/25 05:17:31;;;;;;;1.47;0.90;;;22.30;97.90;;;;;;5009855;28;20570;-83
2023/06/25 05:19:58;;;;;;;1.50;1.00;;;22.40;98.10;;;;;;5038866;28;20553;-83
2023/06/25 05:22:29;;;;;;;1.50;0.90;;;22.60;97.10;;;;;;5001484;28;20726;-84
2023/06/25 05:24:56;;;;;;;1.50;1.10;;;22.80;96.30;;;;;;5040168;28;20486;-83
2023/06/25 05:27:22;;;;;;;1.93;1.10;;;23.00;96.00;;;;;;5005866;28;21096;-82
2023/06/25 05:29:49;;;;;;;1.47;0.90;;;23.00;94.60;;;;;;5011247;28;20458;-82
2023/06/25 05:32:17;;;;;;;1.47;0.90;;;23.10;94.80;;;;;;5001887;28;20492;-82
2023/06/25 05:34:50;;;;;;;1.50;0.90;;;23.20;95.00;;;;;;5017902;28;20832;-84
2023/06/25 05:37:25;;;;;;;1.43;0.90;;;23.20;94.70;;;;;;5021094;28;20480;-83
2023/06/25 05:39:53;;;;;;;1.50;0.90;;;23.20;95.00;;;;;;5040092;28;20907;-84
2023/06/25 05:42:20;;;;;;;1.47;0.90;;;23.20;93.60;;;;;;5013781;28;20592;-85
2023/06/25 05:44:46;;;;;;;1.43;0.90;;;23.30;94.00;;;;;;5034469;28;20459;-85
2023/06/25 05:47:13;;;;;;;1.50;0.90;;;23.50;94.00;;;;;;5026073;28;20506;-86
2023/06/25 05:49:40;;;;;;;1.50;0.90;;;23.70;92.90;;;;;;5040935;28;20478;-84
2023/06/25 05:52:08;;;;;;;1.50;1.00;;;23.70;92.90;;;;;;5019165;28;20523;-86
2023/06/25 05:54:34;;;;;;;1.47;0.90;;;23.80;92.20;;;;;;5035192;28;20972;-86
2023/06/25 05:57:05;;;;;;;1.43;0.90;;;23.90;92.10;;;;;;5024869;28;20583;-87
2023/06/25 05:59:32;;;;;;;1.50;0.87;;;23.90;92.10;;;;;;5033638;28;20455;-85
2023/06/25 06:01:59;;;;;;;1.50;0.90;;;23.90;91.90;;;;;;5019185;28;20539;-84
2023/06/25 06:04:25;;;;;;;1.50;0.90;;;23.90;92.60;;;;;;5031293;28;20466;-83
2023/06/25 06:06:52;;;;;;;1.50;0.90;;;24.00;92.30;;;;;;5013865;28;20511;-84
2023/06/25 06:09:19;;;;;;;1.50;0.90;;;24.10;92.40;;;;;;5021995;28;20477;-84
2023/06/25 06:11:46;;;;;;;1.50;0.90;;;24.20;91.30;;;;;;5016598;28;20606;-83
2023/06/25 06:14:14;;;;;;;1.50;0.90;;;24.30;92.00;;;;;;5024041;28;20465;-83
2023/06/25 06:16:45;;;;;;;1.43;0.90;;;24.50;91.40;;;;;;5020672;28;21033;-84
2023/06/25 06:19:12;;;;;;;1.50;0.90;;;24.80;90.90;;;;;;5030563;28;20487;-85
2023/06/25 06:21:46;;;;;;;1.43;0.80;;;25.00;90.10;;;;;;5020583;28;20502;-85
2023/06/25 06:24:14;;;;;;;1.43;0.80;;;25.10;89.30;;;;;;5027569;28;20569;-84
2023/06/25 06:26:43;;;;;;;1.47;0.83;;;25.20;90.60;;;;;;5018232;28;20491;-85
2023/06/25 06:29:10;;;;;;;1.50;0.90;;;25.30;89.80;;;;;;5032414;28;20549;-84
2023/06/25 06:31:41;;;;;;;1.50;0.90;;;25.50;89.20;;;;;;5017328;28;20551;-84
2023/06/25 06:34:13;;;;;;;1.47;0.87;;;25.70;88.90;;;;;;5028531;28;20467;-86
2023/06/25 06:37:40;;;;;;;1.50;0.90;;;25.80;87.90;;;;;;5025344;28;20483;-85
2023/06/25 06:40:13;;;;;;;1.47;0.80;;;25.90;88.30;;;;;;4970079;28;20487;-85
2023/06/25 06:42:39;;;;;;;1.50;0.80;;;25.90;87.20;;;;;;5011505;28;21251;-83
2023/06/25 06:45:07;;;;;;;1.70;1.17;;;25.80;88.40;;;;;;5035174;28;20513;-83
2023/06/25 06:47:40;;;;;;;1.50;0.80;;;26.00;88.00;;;;;;5005702;28;20475;-84
2023/06/25 06:50:10;;;;;;;1.50;0.90;;;26.30;87.30;;;;;;5035045;28;20868;-83
2023/06/25 06:52:43;;;;;;;1.50;0.90;;;26.50;86.00;;;;;;5007556;28;20811;-83
2023/06/25 06:55:11;;;;;;;1.43;0.90;;;26.80;86.10;;;;;;5035652;28;20509;-83
2023/06/25 07:00:40;;;;;;;1.47;0.90;;;27.20;84.80;;;;;;5022716;28;20485;-85
2023/06/25 07:03:14;;;;;;;1.77;1.63;;;27.30;83.70;;;;;;5008397;28;20487;-83
2023/06/25 07:05:41;;;;;;;1.50;0.90;;;27.40;83.70;;;;;;5032397;28;20494;-83
2023/06/25 07:08:12;;;;;;;1.50;0.87;;;27.40;84.20;;;;;;5009433;28;20548;-83
2023/06/25 07:10:42;;;;;;;1.50;0.90;;;27.60;82.80;;;;;;5031963;28;20810;-83
2023/06/25 07:13:09;;;;;;;2.23;1.07;;;27.60;82.80;;;;;;5007775;28;20556;-83
2023/06/25 07:15:41;;;;;;;1.50;0.80;;;27.60;82.40;;;;;;5035344;28;20481;-84
2023/06/25 07:18:19;;;;;;;1.47;0.80;;;27.80;81.60;;;;;;5007059;28;20549;-83
2023/06/25 07:21:26;;;;;;;1.70;1.43;;;27.90;82.50;;;;;;5038937;28;21010;-87
2023/06/25 07:24:04;;;;;;;1.47;0.80;;;27.90;81.60;;;;;;5010284;28;20505;-85
2023/06/25 07:26:53;;;;;;;1.50;0.90;;;28.00;81.00;;;;;;5020896;28;21080;-84
2023/06/25 07:29:32;;;;;;;1.50;0.80;;;28.20;81.60;;;;;;5025034;28;20501;-84
2023/06/25 07:32:06;;;;;;;1.50;1.00;;;28.30;79.80;;;;;;5015322;28;21396;-84
2023/06/25 07:34:46;;;;;;;1.43;0.80;;;28.40;79.80;;;;;;5036050;28;20461;-84
2023/06/25 07:40:44;;;;;;;1.47;0.80;;;28.80;78.60;;;;;;4930282;28;20476;-83
2023/06/25 07:43:26;;;;;;;2.17;1.63;;;28.80;78.80;;;;;;5012439;28;20474;-84
2023/06/25 07:46:12;;;;;;;1.47;0.80;;;28.90;79.60;;;;;;5022625;28;20582;-85
2023/06/25 07:48:52;;;;;;;1.50;0.90;;;28.90;77.70;;;;;;5022057;28;20473;-84
2023/06/25 07:54:45;;;;;;;1.50;0.90;;;29.10;78.10;;;;;;5016682;28;20963;-84
2023/06/25 07:57:31;;;;;;;1.50;0.97;;;29.30;76.90;;;;;;5008392;28;20559;-84
2023/06/25 08:00:07;;;;;;;1.43;0.80;;;29.40;77.10;;;;;;5026263;28;20472;-85
2023/06/25 08:02:56;;;;;;;1.47;0.87;;;29.60;75.60;;;;;;5007959;28;20566;-85
2023/06/25 08:08:37;;;;;;;2.47;1.10;;;29.90;75.00;;;;;;4996490;28;20475;-85
2023/06/25 08:11:22;;;;;;;2.17;1.73;;;30.10;75.30;;;;;;5020603;28;20466;-87
2023/06/25 08:14:32;;;;;;;1.47;0.80;;;30.20;75.10;;;;;;5022243;28;20466;-85
2023/06/25 08:37:12;;;;;;;1.70;1.27;;;31.00;73.40;;;;;;4974238;28;21033;-84
2023/06/25 08:39:56;;;;;;;1.47;0.80;;;31.10;72.40;;;;;;4940535;28;20461;-86
2023/06/25 08:42:42;;;;;;;1.57;0.93;;;31.40;70.80;;;;;;4951882;28;20476;-86
2023/06/25 08:48:41;;;;;;;1.50;1.00;;;32.00;68.20;;;;;;4954147;28;20216;-84
2023/06/25 08:51:44;;;;;;;1.50;0.90;;;32.30;68.20;;;;;;4987770;28;20328;-83
2023/06/25 08:54:33;;;;;;;1.43;0.80;;;32.40;66.30;;;;;;4990322;28;20211;-85
2023/06/25 08:59:44;;;;;;;1.50;0.80;;;32.40;66.20;;;;;;4985669;23;20256;-86
2023/06/25 09:02:11;;;;;;;1.50;1.00;;;32.60;67.20;;;;;;4953823;28;20230;-85
2023/06/25 09:04:38;;;;;;;1.40;0.80;;;32.80;66.30;;;;;;4958998;28;20280;-87
2023/06/25 09:07:07;;;;;;;1.45;0.80;;;32.90;66.60;;;;;;4963030;28;20264;-86
2023/06/25 09:09:34;;;;;;;1.87;1.20;;;33.10;66.00;;;;;;4953683;28;20233;-85
2023/06/25 09:12:01;;;;;;;1.47;0.80;;;33.30;65.50;;;;;;4974489;23;21472;-81
2023/06/25 09:14:30;;;;;;;1.50;0.80;;;33.50;64.70;;;;;;4953068;28;20643;-81
2023/06/25 09:16:59;;;;;;;2.88;2.60;;;33.70;63.80;;;;;;4950894;28;20248;-80
2023/06/25 09:19:26;;;;;;;1.60;1.10;;;33.80;63.30;;;;;;4958508;28;20210;-81
2023/06/25 09:21:53;;;;;;;1.45;0.80;;;34.00;64.20;;;;;;4956259;28;20237;-80
2023/06/25 09:24:23;;;;;;;1.42;0.80;;;34.10;62.10;;;;;;4963105;28;20215;-83
2023/06/25 09:26:54;;;;;;;1.40;0.80;;;34.10;63.40;;;;;;4949703;28;20688;-79
2023/06/25 09:29:25;;;;;;;1.40;0.80;;;34.20;62.70;;;;;;4957128;28;20301;-80
2023/06/25 09:31:54;;;;;;;1.42;0.80;;;34.20;62.80;;;;;;4950621;28;20241;-79
2023/06/25 09:34:25;;;;;;;1.45;0.80;;;34.40;62.60;;;;;;4962185;28;20221;-81
2023/06/25 09:36:57;;;;;;;1.45;0.80;;;34.60;62.20;;;;;;4958520;28;20302;-81
2023/06/25 09:39:26;;;;;;;1.40;0.80;;;34.70;61.30;;;;;;4956329;28;20699;-81
2023/06/25 09:41:56;;;;;;;1.40;0.80;;;34.90;60.90;;;;;;4951895;28;20268;-80
2023/06/25 09:44:24;;;;;;;1.48;0.80;;;35.00;59.40;;;;;;4957460;28;20317;-81
2023/06/25 09:46:58;;;;;;;1.40;0.80;;;35.10;59.80;;;;;;4950984;28;20741;-80
2023/06/25 09:49:32;;;;;;;1.40;0.80;;;35.20;59.80;;;;;;4956374;28;20207;-79
2023/06/25 09:52:10;;;;;;;1.45;0.80;;;35.20;57.70;;;;;;4952432;28;20233;-79
2023/06/25 09:54:42;;;;;;;1.40;0.80;;;35.20;59.30;;;;;;4952532;28;20703;-79
2023/06/25 09:57:14;;;;;;;1.40;0.80;;;35.40;59.60;;;;;;4942512;28;20241;-80
2023/06/25 09:59:42;;;;;;;1.40;0.80;;;35.50;59.40;;;;;;4947372;28;20253;-80
2023/06/25 10:02:10;;;;;;;1.40;0.80;;;35.70;58.30;;;;;;4955811;28;20775;-80
2023/06/25 10:04:40;;;;;;;1.40;0.80;;;35.80;58.30;;;;;;4952072;28;20240;-80
2023/06/25 10:07:10;;;;;;;1.40;0.80;;;35.90;57.90;;;;;;4951617;28;20348;-80
2023/06/25 10:09:39;;;;;;;1.40;0.80;;;36.00;58.10;;;;;;4953128;28;20211;-81
2023/06/25 10:12:11;;;;;;;1.40;0.80;;;36.10;56.70;;;;;;4950231;28;20279;-80
2023/06/25 10:14:39;;;;;;;1.50;0.90;;;36.10;58.00;;;;;;4952264;28;20203;-80
2023/06/25 10:17:09;;;;;;;1.40;0.80;;;36.20;58.80;;;;;;4949356;28;20237;-80
2023/06/25 10:19:37;;;;;;;1.40;1.00;;;36.30;57.40;;;;;;4951852;28;20505;-79
2023/06/25 10:22:10;;;;;;;1.40;0.80;;;36.40;57.40;;;;;;4956135;28;20276;-80
2023/06/25 10:24:43;;;;;;;1.40;0.80;;;36.50;57.10;;;;;;4960011;28;20207;-79
2023/06/25 10:27:23;;;;;;;1.40;0.80;;;36.60;57.10;;;;;;4950725;28;20689;-79
2023/06/25 10:29:52;;;;;;;1.40;0.80;;;36.50;57.20;;;;;;4947997;28;20218;-79
2023/06/25 10:32:21;;;;;;;1.40;0.80;;;36.50;55.70;;;;;;4944763;28;20226;-79
2023/06/25 10:34:54;;;;;;;1.40;0.80;;;36.60;57.40;;;;;;4945704;28;20237;-79
2023/06/25 10:37:29;;;;;;;1.40;0.80;;;36.70;56.40;;;;;;4956823;28;20229;-78
2023/06/25 10:40:03;;;;;;;1.40;0.80;;;36.80;57.10;;;;;;4946682;28;20272;-79
2023/06/25 10:42:31;;;;;;;1.40;0.80;;;36.90;56.20;;;;;;4958835;28;20232;-80
2023/06/25 10:45:00;;;;;;;1.40;0.80;;;37.10;56.90;;;;;;4945616;28;20386;-78
2023/06/25 10:47:27;;;;;;;1.40;0.80;;;37.10;55.60;;;;;;4960481;28;20399;-79
2023/06/25 10:49:56;;;;;;;1.40;0.80;;;37.30;55.20;;;;;;4951599;28;20560;-79
2023/06/25 10:52:26;;;;;;;1.40;0.80;;;37.40;56.80;;;;;;4960660;28;20256;-80
2023/06/25 10:54:55;;;;;;;1.40;0.80;;;37.50;54.80;;;;;;4952065;28;20708;-79
2023/06/25 10:57:23;;;;;;;1.40;0.80;;;37.50;54.40;;;;;;4949010;28;20353;-79
2023/06/25 10:59:51;;;;;;;1.50;1.08;;;37.60;56.60;;;;;;4950069;28;20222;-78
2023/06/25 11:02:20;;;;;;;1.40;0.80;;;37.60;55.20;;;;;;4960573;28;20229;-79
2023/06/25 11:04:52;;;;;;;1.40;0.80;;;37.30;55.30;;;;;;4954059;28;20214;-78
2023/06/25 11:07:21;;;;;;;1.40;0.80;;;37.00;55.60;;;;;;4958406;28;20229;-79
2023/06/25 11:09:56;;;;;;;1.40;0.80;;;36.90;55.80;;;;;;4953440;28;20757;-79
2023/06/25 11:12:23;;;;;;;1.40;0.80;;;36.70;56.00;;;;;;4949792;28;20268;-80
2023/06/25 11:14:52;;;;;;;1.40;0.80;;;36.50;57.00;;;;;;4950510;28;20214;-79
2023/06/25 11:17:20;;;;;;;1.40;0.80;;;36.70;57.00;;;;;;4961356;28;20793;-79
2023/06/25 11:19:57;;;;;;;1.40;0.80;;;36.70;56.90;;;;;;4952696;28;20218;-79
2023/06/25 11:22:26;;;;;;;1.40;0.80;;;36.40;57.50;;;;;;4965415;28;20251;-79
2023/06/25 11:24:56;;;;;;;1.40;0.80;;;36.20;56.90;;;;;;4955066;28;20722;-79
2023/06/25 11:27:28;;;;;;;1.88;1.35;;;35.60;57.40;;;;;;4959451;28;20229;-79
2023/06/25 11:29:55;;;;;;;1.40;0.80;;;35.40;58.30;;;;;;4950705;28;20520;-79
2023/06/25 11:32:25;;;;;;;1.40;0.80;;;35.50;58.90;;;;;;4959732;28;20557;-78
2023/06/25 11:34:52;;;;;;;1.40;0.80;;;35.50;58.90;;;;;;4951557;28;20306;-78
2023/06/25 11:37:20;;;;;;;1.40;0.80;;;35.10;57.70;;;;;;4959807;28;20746;-80
2023/06/25 11:39:49;;;;;;;1.40;0.80;;;34.70;57.90;;;;;;4952682;28;20234;-79
2023/06/25 11:42:20;;;;;;;1.40;0.80;;;34.20;60.70;;;;;;4958958;28;20236;-78
2023/06/25 11:44:58;;;;;;;1.45;0.80;;;33.90;59.60;;;;;;4949260;28;20621;-79
2023/06/25 11:47:26;;;;;;;1.42;0.82;;;33.70;60.00;;;;;;4960506;28;20232;-78
2023/06/25 11:49:54;;;;;;;1.45;0.90;;;33.90;62.10;;;;;;4949836;28;20215;-80
2023/06/25 11:52:22;;;;;;;1.40;0.80;;;34.20;59.00;;;;;;4958920;28;20791;-80
2023/06/25 11:54:50;;;;;;;1.42;0.80;;;34.40;59.90;;;;;;4952350;28;20748;-79
2023/06/25 11:57:19;;;;;;;1.40;0.80;;;34.70;58.30;;;;;;4957030;28;20229;-79
2023/06/25 11:59:47;;;;;;;1.42;0.80;;;34.90;58.60;;;;;;4953762;28;20286;-79
2023/06/25 12:02:15;;;;;;;1.40;0.80;;;35.30;58.10;;;;;;4957595;28;20591;-79
2023/06/25 12:04:42;;;;;;;1.40;0.80;;;35.60;57.50;;;;;;4953797;28;20262;-79
2023/06/25 12:07:10;;;;;;;2.90;1.35;;;35.90;56.00;;;;;;4957285;28;20225;-80
2023/06/25 12:09:38;;;;;;;1.40;0.90;;;36.10;56.20;;;;;;4954363;28;20219;-78
2023/06/25 12:12:06;;;;;;;1.40;0.80;;;36.50;57.40;;;;;;4944368;28;20810;-79
2023/06/25 12:14:34;;;;;;;1.40;0.80;;;36.90;56.80;;;;;;4950737;28;20309;-79
2023/06/25 12:17:02;;;;;;;1.40;0.80;;;37.30;55.90;;;;;;4954691;28;20240;-79
2023/06/25 12:19:30;;;;;;;1.40;0.80;;;37.50;54.90;;;;;;4957611;28;20547;-79
2023/06/25 12:21:58;;;;;;;1.40;0.80;;;37.50;54.30;;;;;;4945712;28;20230;-80
2023/06/25 12:24:27;;;;;;;1.40;0.82;;;37.40;54.90;;;;;;4962795;28;20306;-79
2023/06/25 12:26:55;;;;;;;1.40;0.80;;;37.40;54.20;;;;;;4956192;28;20245;-80
2023/06/25 12:29:22;;;;;;;1.40;0.80;;;37.20;54.20;;;;;;4956182;28;20242;-80
2023/06/25 12:31:51;;;;;;;1.40;0.80;;;37.00;53.90;;;;;;4950343;28;20288;-81
2023/06/25 12:34:18;;;;;;;1.40;0.90;;;36.80;54.50;;;;;;4957670;28;20474;-79
2023/06/25 12:36:46;;;;;;;1.40;0.80;;;36.40;55.10;;;;;;4942416;28;20702;-80
2023/06/25 12:39:14;;;;;;;1.40;0.80;;;36.30;56.10;;;;;;4954708;28;20206;-78
2023/06/25 12:41:41;;;;;;;1.40;0.80;;;36.40;55.50;;;;;;4947552;28;20757;-79
2023/06/25 12:44:08;;;;;;;1.38;0.80;;;36.30;55.40;;;;;;4957816;28;20743;-77
2023/06/25 12:46:35;;;;;;;1.50;1.10;;;36.50;55.10;;;;;;4944982;28;20236;-78
2023/06/25 12:49:04;;;;;;;1.40;0.80;;;36.70;56.70;;;;;;4959446;28;20300;-79
2023/06/25 12:51:31;;;;;;;1.40;0.80;;;37.10;57.20;;;;;;4942762;28;20320;-79
2023/06/25 12:53:59;;;;;;;1.40;0.80;;;37.50;55.90;;;;;;4959799;28;20307;-78
2023/06/25 12:56:28;;;;;;;1.38;0.80;;;37.80;56.50;;;;;;4938660;28;20229;-79
2023/06/25 12:58:56;;;;;;;1.40;0.80;;;38.10;55.00;;;;;;4950419;28;20221;-79
2023/06/25 13:01:23;;;;;;;1.40;0.80;;;38.00;54.30;;;;;;4943282;28;20233;-78
2023/06/25 13:03:50;;;;;;;1.40;0.80;;;37.90;54.30;;;;;;4963877;28;20326;-79
2023/06/25 13:06:20;;;;;;;1.38;0.80;;;37.60;54.20;;;;;;4940593;28;20233;-78
2023/06/25 13:08:47;;;;;;;1.38;0.80;;;37.70;55.30;;;;;;4965315;28;20660;-78
2023/06/25 13:11:14;;;;;;;1.40;0.85;;;38.00;53.50;;;;;;4933572;28;20769;-79
2023/06/25 13:13:41;;;;;;;1.40;0.80;;;38.10;54.30;;;;;;4947864;28;20234;-80
2023/06/25 13:16:09;;;;;;;1.40;0.80;;;38.20;53.70;;;;;;4935022;28;20246;-80
2023/06/25 13:18:40;;;;;;;1.40;0.80;;;38.40;54.80;;;;;;4963248;28;20206;-80
2023/06/25 13:21:08;;;;;;;1.40;0.80;;;38.50;52.90;;;;;;4936280;28;20273;-80
2023/06/25 13:23:38;;;;;;;1.40;1.00;;;38.50;53.00;;;;;;4969109;28;20226;-80
2023/06/25 13:26:05;;;;;;;1.40;0.80;;;38.60;53.00;;;;;;4937348;28;20209;-79
2023/06/25 13:28:32;;;;;;;1.40;0.80;;;38.80;53.00;;;;;;4967445;28;20207;-80
2023/06/25 13:30:59;;;;;;;1.40;0.80;;;38.90;53.80;;;;;;4937891;28;20218;-80
2023/06/25 13:33:27;;;;;;;1.40;0.90;;;38.90;53.70;;;;;;4957129;28;20226;-80
2023/06/25 13:35:54;;;;;;;1.40;0.80;;;39.00;53.40;;;;;;4936445;28;20211;-81
2023/06/25 13:38:22;;;;;;;1.38;0.80;;;39.00;53.50;;;;;;4972917;28;20586;-80
2023/06/25 13:40:51;;;;;;;1.38;0.80;;;39.10;51.90;;;;;;4934023;28;20222;-80
2023/06/25 13:43:18;;;;;;;1.40;0.80;;;39.10;52.60;;;;;;4973589;28;20309;-81